sensor_id;sensor_type;location;lat;lon;timestamp;temperature;humidity
62424;DHT22;48463;43.604;3.872;2023-07-22T00:00:50;24.00;79.10
62424;DHT22;48463;43.604;3.872;2023-07-22T00:03:15;23.80;79.30
62424;DHT22;48463;43.604;3.872;2023-07-22T00:05:41;23.90;79.50
62424;DHT22;48463;43.604;3.872;2023-07-22T00:08:07;23.90;79.70
62424;DHT22;48463;43.604;3.872;2023-07-22T00:10:33;23.70;79.70
62424;DHT22;48463;43.604;3.872;2023-07-22T00:12:58;23.70;80.00
62424;DHT22;48463;43.604;3.872;2023-07-22T00:15:25;23.70;80.30
62424;DHT22;48463;43.604;3.872;2023-07-22T00:17:51;23.80;80.20
62424;DHT22;48463;43.604;3.872;2023-07-22T00:20:16;23.80;80.10
62424;DHT22;48463;43.604;3.872;2023-07-22T00:22:42;23.70;80.30
62424;DHT22;48463;43.604;3.872;2023-07-22T00:25:10;23.70;80.30
62424;DHT22;48463;43.604;3.872;2023-07-22T00:27:37;23.70;80.30
62424;DHT22;48463;43.604;3.872;2023-07-22T00:30:07;23.70;80.40
62424;DHT22;48463;43.604;3.872;2023-07-22T00:32:33;23.70;80.60
62424;DHT22;48463;43.604;3.872;2023-07-22T00:34:59;23.60;80.70
62424;DHT22;48463;43.604;3.872;2023-07-22T00:37:24;23.70;80.90
62424;DHT22;48463;43.604;3.872;2023-07-22T00:39:51;23.60;81.10
62424;DHT22;48463;43.604;3.872;2023-07-22T00:42:16;23.50;81.50
62424;DHT22;48463;43.604;3.872;2023-07-22T00:44:42;23.40;81.50
62424;DHT22;48463;43.604;3.872;2023-07-22T00:47:08;23.50;81.60
62424;DHT22;48463;43.604;3.872;2023-07-22T00:49:34;23.50;81.60
62424;DHT22;48463;43.604;3.872;2023-07-22T00:52:01;23.40;81.70
62424;DHT22;48463;43.604;3.872;2023-07-22T00:54:28;23.40;81.80
62424;DHT22;48463;43.604;3.872;2023-07-22T00:56:55;23.40;82.20
62424;DHT22;48463;43.604;3.872;2023-07-22T00:59:21;23.40;82.10
62424;DHT22;48463;43.604;3.872;2023-07-22T01:01:47;23.40;82.10
62424;DHT22;48463;43.604;3.872;2023-07-22T01:04:14;23.50;82.40
62424;DHT22;48463;43.604;3.872;2023-07-22T01:06:42;23.30;82.70
62424;DHT22;48463;43.604;3.872;2023-07-22T01:09:10;23.40;82.70
62424;DHT22;48463;43.604;3.872;2023-07-22T01:11:35;23.30;83.00
62424;DHT22;48463;43.604;3.872;2023-07-22T01:14:01;23.20;83.20
62424;DHT22;48463;43.604;3.872;2023-07-22T01:16:27;23.30;83.20
62424;DHT22;48463;43.604;3.872;2023-07-22T01:18:56;23.20;83.20
62424;DHT22;48463;43.604;3.872;2023-07-22T01:21:25;23.20;83.40
62424;DHT22;48463;43.604;3.872;2023-07-22T01:23:51;23.20;83.50
62424;DHT22;48463;43.604;3.872;2023-07-22T01:26:18;23.10;83.60
62424;DHT22;48463;43.604;3.872;2023-07-22T01:28:44;23.00;83.80
62424;DHT22;48463;43.604;3.872;2023-07-22T01:31:10;23.00;84.20
62424;DHT22;48463;43.604;3.872;2023-07-22T01:33:36;23.00;84.20
62424;DHT22;48463;43.604;3.872;2023-07-22T01:36:03;23.00;84.10
62424;DHT22;48463;43.604;3.872;2023-07-22T01:38:29;23.10;84.20
62424;DHT22;48463;43.604;3.872;2023-07-22T01:40:56;23.00;84.30
62424;DHT22;48463;43.604;3.872;2023-07-22T01:43:22;22.90;84.60
62424;DHT22;48463;43.604;3.872;2023-07-22T01:45:48;23.00;84.80
62424;DHT22;48463;43.604;3.872;2023-07-22T01:48:14;23.10;84.70
62424;DHT22;48463;43.604;3.872;2023-07-22T01:50:39;23.00;84.80
62424;DHT22;48463;43.604;3.872;2023-07-22T01:53:05;22.90;84.90
62424;DHT22;48463;43.604;3.872;2023-07-22T01:55:31;22.90;85.10
62424;DHT22;48463;43.604;3.872;2023-07-22T01:58:00;22.90;85.10
62424;DHT22;48463;43.604;3.872;2023-07-22T02:00:26;23.00;85.10
62424;DHT22;48463;43.604;3.872;2023-07-22T02:02:52;22.90;85.40
62424;DHT22;48463;43.604;3.872;2023-07-22T02:05:18;22.90;85.50
62424;DHT22;48463;43.604;3.872;2023-07-22T02:07:43;22.90;85.50
62424;DHT22;48463;43.604;3.872;2023-07-22T02:10:09;22.80;85.80
62424;DHT22;48463;43.604;3.872;2023-07-22T02:12:35;22.80;85.70
62424;DHT22;48463;43.604;3.872;2023-07-22T02:15:01;22.80;85.80
62424;DHT22;48463;43.604;3.872;2023-07-22T02:17:28;22.70;85.90
62424;DHT22;48463;43.604;3.872;2023-07-22T02:19:56;22.70;86.20
62424;DHT22;48463;43.604;3.872;2023-07-22T02:22:21;22.80;86.00
62424;DHT22;48463;43.604;3.872;2023-07-22T02:24:48;22.80;85.90
62424;DHT22;48463;43.604;3.872;2023-07-22T02:27:13;22.90;85.90
62424;DHT22;48463;43.604;3.872;2023-07-22T02:29:39;22.90;85.80
62424;DHT22;48463;43.604;3.872;2023-07-22T02:32:05;22.90;85.80
62424;DHT22;48463;43.604;3.872;2023-07-22T02:34:31;22.80;86.00
62424;DHT22;48463;43.604;3.872;2023-07-22T02:36:56;22.80;86.30
62424;DHT22;48463;43.604;3.872;2023-07-22T02:39:22;22.80;86.50
62424;DHT22;48463;43.604;3.872;2023-07-22T02:41:48;22.80;86.50
62424;DHT22;48463;43.604;3.872;2023-07-22T02:44:14;22.80;86.50
62424;DHT22;48463;43.604;3.872;2023-07-22T02:46:39;22.70;86.70
62424;DHT22;48463;43.604;3.872;2023-07-22T02:49:06;22.70;86.80
62424;DHT22;48463;43.604;3.872;2023-07-22T02:51:32;22.70;86.70
62424;DHT22;48463;43.604;3.872;2023-07-22T02:53:58;22.70;86.70
62424;DHT22;48463;43.604;3.872;2023-07-22T02:56:23;22.70;86.60
62424;DHT22;48463;43.604;3.872;2023-07-22T02:58:51;22.70;86.80
62424;DHT22;48463;43.604;3.872;2023-07-22T03:01:18;22.70;86.80
62424;DHT22;48463;43.604;3.872;2023-07-22T03:03:44;22.70;86.90
62424;DHT22;48463;43.604;3.872;2023-07-22T03:06:10;22.60;87.00
62424;DHT22;48463;43.604;3.872;2023-07-22T03:08:36;22.60;87.00
62424;DHT22;48463;43.604;3.872;2023-07-22T03:11:02;22.60;87.20
62424;DHT22;48463;43.604;3.872;2023-07-22T03:13:29;22.60;87.30
62424;DHT22;48463;43.604;3.872;2023-07-22T03:15:56;22.50;87.60
62424;DHT22;48463;43.604;3.872;2023-07-22T03:18:22;22.60;87.50
62424;DHT22;48463;43.604;3.872;2023-07-22T03:20:48;22.50;87.40
62424;DHT22;48463;43.604;3.872;2023-07-22T03:23:14;22.60;87.40
62424;DHT22;48463;43.604;3.872;2023-07-22T03:25:39;22.60;87.50
62424;DHT22;48463;43.604;3.872;2023-07-22T03:28:06;22.50;87.70
62424;DHT22;48463;43.604;3.872;2023-07-22T03:30:33;22.50;87.70
62424;DHT22;48463;43.604;3.872;2023-07-22T03:32:59;22.40;87.80
62424;DHT22;48463;43.604;3.872;2023-07-22T03:35:26;22.50;87.90
62424;DHT22;48463;43.604;3.872;2023-07-22T03:37:52;22.60;87.60
62424;DHT22;48463;43.604;3.872;2023-07-22T03:40:18;22.70;87.60
62424;DHT22;48463;43.604;3.872;2023-07-22T03:42:51;22.70;87.50
62424;DHT22;48463;43.604;3.872;2023-07-22T03:45:18;22.70;87.60
62424;DHT22;48463;43.604;3.872;2023-07-22T03:47:45;22.70;87.60
62424;DHT22;48463;43.604;3.872;2023-07-22T03:50:11;22.80;87.50
62424;DHT22;48463;43.604;3.872;2023-07-22T03:52:37;22.70;87.70
62424;DHT22;48463;43.604;3.872;2023-07-22T03:55:04;22.60;87.70
62424;DHT22;48463;43.604;3.872;2023-07-22T03:57:31;22.70;87.90
62424;DHT22;48463;43.604;3.872;2023-07-22T03:59:57;22.50;88.00
62424;DHT22;48463;43.604;3.872;2023-07-22T04:02:24;22.40;88.40
62424;DHT22;48463;43.604;3.872;2023-07-22T04:04:51;22.40;88.50
62424;DHT22;48463;43.604;3.872;2023-07-22T04:07:17;22.30;88.70
62424;DHT22;48463;43.604;3.872;2023-07-22T04:09:43;22.30;88.80
62424;DHT22;48463;43.604;3.872;2023-07-22T04:12:10;22.30;88.90
62424;DHT22;48463;43.604;3.872;2023-07-22T04:14:36;22.40;88.70
62424;DHT22;48463;43.604;3.872;2023-07-22T04:17:02;22.30;88.60
62424;DHT22;48463;43.604;3.872;2023-07-22T04:19:30;22.30;88.70
62424;DHT22;48463;43.604;3.872;2023-07-22T04:21:55;22.40;88.80
62424;DHT22;48463;43.604;3.872;2023-07-22T04:24:21;22.40;88.80
62424;DHT22;48463;43.604;3.872;2023-07-22T04:26:47;22.40;88.70
62424;DHT22;48463;43.604;3.872;2023-07-22T04:29:14;22.30;88.60
62424;DHT22;48463;43.604;3.872;2023-07-22T04:31:39;22.40;88.70
62424;DHT22;48463;43.604;3.872;2023-07-22T04:34:05;22.30;88.80
62424;DHT22;48463;43.604;3.872;2023-07-22T04:36:32;22.30;89.00
62424;DHT22;48463;43.604;3.872;2023-07-22T04:38:57;22.30;89.00
62424;DHT22;48463;43.604;3.872;2023-07-22T04:41:23;22.20;89.40
62424;DHT22;48463;43.604;3.872;2023-07-22T04:43:52;22.30;89.40
62424;DHT22;48463;43.604;3.872;2023-07-22T04:46:18;22.30;89.20
62424;DHT22;48463;43.604;3.872;2023-07-22T04:48:43;22.20;89.30
62424;DHT22;48463;43.604;3.872;2023-07-22T04:51:09;22.20;89.40
62424;DHT22;48463;43.604;3.872;2023-07-22T04:53:36;22.30;89.40
62424;DHT22;48463;43.604;3.872;2023-07-22T04:56:02;22.40;89.40
62424;DHT22;48463;43.604;3.872;2023-07-22T04:58:28;22.30;89.40
62424;DHT22;48463;43.604;3.872;2023-07-22T05:00:55;22.40;89.40
62424;DHT22;48463;43.604;3.872;2023-07-22T05:03:20;22.40;89.20
62424;DHT22;48463;43.604;3.872;2023-07-22T05:05:46;22.40;89.10
62424;DHT22;48463;43.604;3.872;2023-07-22T05:08:12;22.40;89.10
62424;DHT22;48463;43.604;3.872;2023-07-22T05:10:38;22.30;89.40
62424;DHT22;48463;43.604;3.872;2023-07-22T05:13:04;22.30;89.60
62424;DHT22;48463;43.604;3.872;2023-07-22T05:15:30;22.40;89.80
62424;DHT22;48463;43.604;3.872;2023-07-22T05:17:57;22.30;89.70
62424;DHT22;48463;43.604;3.872;2023-07-22T05:20:22;22.30;89.80
62424;DHT22;48463;43.604;3.872;2023-07-22T05:22:48;22.40;89.60
62424;DHT22;48463;43.604;3.872;2023-07-22T05:25:14;22.30;89.80
62424;DHT22;48463;43.604;3.872;2023-07-22T05:27:40;22.40;89.30
62424;DHT22;48463;43.604;3.872;2023-07-22T05:30:07;22.50;89.80
62424;DHT22;48463;43.604;3.872;2023-07-22T05:32:34;22.60;88.90
62424;DHT22;48463;43.604;3.872;2023-07-22T05:35:00;22.70;88.90
62424;DHT22;48463;43.604;3.872;2023-07-22T05:37:29;22.70;88.90
62424;DHT22;48463;43.604;3.872;2023-07-22T05:39:55;22.80;88.80
62424;DHT22;48463;43.604;3.872;2023-07-22T05:42:20;22.90;88.70
62424;DHT22;48463;43.604;3.872;2023-07-22T05:44:47;22.90;88.40
62424;DHT22;48463;43.604;3.872;2023-07-22T05:47:15;22.90;88.50
62424;DHT22;48463;43.604;3.872;2023-07-22T05:49:40;23.00;88.10
62424;DHT22;48463;43.604;3.872;2023-07-22T05:52:06;23.10;88.10
62424;DHT22;48463;43.604;3.872;2023-07-22T05:54:32;23.10;88.10
62424;DHT22;48463;43.604;3.872;2023-07-22T05:56:58;23.10;87.80
62424;DHT22;48463;43.604;3.872;2023-07-22T05:59:23;23.10;87.60
62424;DHT22;48463;43.604;3.872;2023-07-22T06:01:49;23.10;87.70
62424;DHT22;48463;43.604;3.872;2023-07-22T06:04:15;23.20;87.60
62424;DHT22;48463;43.604;3.872;2023-07-22T06:06:40;23.60;87.00
62424;DHT22;48463;43.604;3.872;2023-07-22T06:09:06;23.90;86.30
62424;DHT22;48463;43.604;3.872;2023-07-22T06:11:32;24.00;85.90
62424;DHT22;48463;43.604;3.872;2023-07-22T06:13:57;23.80;86.20
62424;DHT22;48463;43.604;3.872;2023-07-22T06:16:23;23.80;86.40
62424;DHT22;48463;43.604;3.872;2023-07-22T06:18:48;23.80;86.30
62424;DHT22;48463;43.604;3.872;2023-07-22T06:21:14;24.00;85.70
62424;DHT22;48463;43.604;3.872;2023-07-22T06:23:41;24.00;85.90
62424;DHT22;48463;43.604;3.872;2023-07-22T06:26:07;24.00;86.00
62424;DHT22;48463;43.604;3.872;2023-07-22T06:28:32;24.00;85.40
62424;DHT22;48463;43.604;3.872;2023-07-22T06:30:58;24.00;85.60
62424;DHT22;48463;43.604;3.872;2023-07-22T06:33:24;24.00;84.90
62424;DHT22;48463;43.604;3.872;2023-07-22T06:35:49;24.00;85.20
62424;DHT22;48463;43.604;3.872;2023-07-22T06:38:15;24.00;85.10
62424;DHT22;48463;43.604;3.872;2023-07-22T06:40:41;24.10;85.40
62424;DHT22;48463;43.604;3.872;2023-07-22T06:43:08;24.40;84.20
62424;DHT22;48463;43.604;3.872;2023-07-22T06:45:34;24.40;84.20
62424;DHT22;48463;43.604;3.872;2023-07-22T06:48:00;24.50;83.60
62424;DHT22;48463;43.604;3.872;2023-07-22T06:50:25;24.40;83.30
62424;DHT22;48463;43.604;3.872;2023-07-22T06:52:51;24.50;83.50
62424;DHT22;48463;43.604;3.872;2023-07-22T06:55:18;24.50;83.10
62424;DHT22;48463;43.604;3.872;2023-07-22T06:57:44;24.50;83.30
62424;DHT22;48463;43.604;3.872;2023-07-22T07:00:09;24.60;83.30
62424;DHT22;48463;43.604;3.872;2023-07-22T07:02:36;25.00;82.50
62424;DHT22;48463;43.604;3.872;2023-07-22T07:05:02;25.30;81.90
62424;DHT22;48463;43.604;3.872;2023-07-22T07:07:27;25.10;82.00
62424;DHT22;48463;43.604;3.872;2023-07-22T07:09:53;25.20;82.00
62424;DHT22;48463;43.604;3.872;2023-07-22T07:12:19;25.00;82.20
62424;DHT22;48463;43.604;3.872;2023-07-22T07:14:45;24.90;82.50
62424;DHT22;48463;43.604;3.872;2023-07-22T07:17:10;25.00;82.20
62424;DHT22;48463;43.604;3.872;2023-07-22T07:19:36;25.30;81.70
62424;DHT22;48463;43.604;3.872;2023-07-22T07:22:02;25.40;82.00
62424;DHT22;48463;43.604;3.872;2023-07-22T07:24:28;25.60;81.60
62424;DHT22;48463;43.604;3.872;2023-07-22T07:26:53;25.90;80.50
62424;DHT22;48463;43.604;3.872;2023-07-22T07:29:19;26.10;79.80
62424;DHT22;48463;43.604;3.872;2023-07-22T07:31:44;25.90;79.20
62424;DHT22;48463;43.604;3.872;2023-07-22T07:34:10;26.20;79.00
62424;DHT22;48463;43.604;3.872;2023-07-22T07:36:37;26.30;79.00
62424;DHT22;48463;43.604;3.872;2023-07-22T07:39:03;26.00;79.20
62424;DHT22;48463;43.604;3.872;2023-07-22T07:41:30;26.10;79.30
62424;DHT22;48463;43.604;3.872;2023-07-22T07:43:57;26.00;79.20
62424;DHT22;48463;43.604;3.872;2023-07-22T07:46:24;25.90;79.10
62424;DHT22;48463;43.604;3.872;2023-07-22T07:48:52;26.10;78.90
62424;DHT22;48463;43.604;3.872;2023-07-22T07:51:20;26.30;78.60
62424;DHT22;48463;43.604;3.872;2023-07-22T07:53:47;26.60;77.90
62424;DHT22;48463;43.604;3.872;2023-07-22T07:56:13;26.70;77.20
62424;DHT22;48463;43.604;3.872;2023-07-22T07:58:40;26.80;77.00
62424;DHT22;48463;43.604;3.872;2023-07-22T08:01:06;26.80;77.80
62424;DHT22;48463;43.604;3.872;2023-07-22T08:03:32;26.90;76.70
62424;DHT22;48463;43.604;3.872;2023-07-22T08:06:00;27.20;76.10
62424;DHT22;48463;43.604;3.872;2023-07-22T08:08:27;27.20;75.90
62424;DHT22;48463;43.604;3.872;2023-07-22T08:10:59;27.20;75.00
62424;DHT22;48463;43.604;3.872;2023-07-22T08:13:25;27.50;74.40
62424;DHT22;48463;43.604;3.872;2023-07-22T08:15:52;27.30;74.90
62424;DHT22;48463;43.604;3.872;2023-07-22T08:18:19;27.60;74.10
62424;DHT22;48463;43.604;3.872;2023-07-22T08:20:45;27.70;73.90
62424;DHT22;48463;43.604;3.872;2023-07-22T08:23:13;27.70;73.50
62424;DHT22;48463;43.604;3.872;2023-07-22T08:25:39;27.50;73.70
62424;DHT22;48463;43.604;3.872;2023-07-22T08:28:04;27.70;73.70
62424;DHT22;48463;43.604;3.872;2023-07-22T08:30:30;27.80;73.50
62424;DHT22;48463;43.604;3.872;2023-07-22T08:32:56;27.60;73.10
62424;DHT22;48463;43.604;3.872;2023-07-22T08:35:21;27.40;74.10
62424;DHT22;48463;43.604;3.872;2023-07-22T08:37:48;27.80;73.60
62424;DHT22;48463;43.604;3.872;2023-07-22T08:40:13;28.00;73.70
62424;DHT22;48463;43.604;3.872;2023-07-22T08:42:41;27.60;72.60
62424;DHT22;48463;43.604;3.872;2023-07-22T08:45:10;27.50;72.90
62424;DHT22;48463;43.604;3.872;2023-07-22T08:47:46;27.30;73.20
62424;DHT22;48463;43.604;3.872;2023-07-22T08:50:18;27.60;73.80
62424;DHT22;48463;43.604;3.872;2023-07-22T08:52:45;27.90;73.50
62424;DHT22;48463;43.604;3.872;2023-07-22T08:55:12;28.30;73.20
62424;DHT22;48463;43.604;3.872;2023-07-22T08:57:39;28.30;72.50
62424;DHT22;48463;43.604;3.872;2023-07-22T09:00:08;28.50;72.10
62424;DHT22;48463;43.604;3.872;2023-07-22T09:02:35;28.60;71.90
62424;DHT22;48463;43.604;3.872;2023-07-22T09:05:02;28.70;71.60
62424;DHT22;48463;43.604;3.872;2023-07-22T09:07:28;28.70;71.20
62424;DHT22;48463;43.604;3.872;2023-07-22T09:09:56;28.50;70.50
62424;DHT22;48463;43.604;3.872;2023-07-22T09:12:23;28.50;70.20
62424;DHT22;48463;43.604;3.872;2023-07-22T09:14:50;28.20;70.70
62424;DHT22;48463;43.604;3.872;2023-07-22T09:17:18;28.00;70.30
62424;DHT22;48463;43.604;3.872;2023-07-22T09:19:44;28.30;70.50
62424;DHT22;48463;43.604;3.872;2023-07-22T09:22:09;28.10;70.50
62424;DHT22;48463;43.604;3.872;2023-07-22T09:24:38;28.20;70.20
62424;DHT22;48463;43.604;3.872;2023-07-22T09:27:04;28.20;69.70
62424;DHT22;48463;43.604;3.872;2023-07-22T09:29:34;28.20;70.00
62424;DHT22;48463;43.604;3.872;2023-07-22T09:32:00;28.50;69.90
62424;DHT22;48463;43.604;3.872;2023-07-22T09:34:26;28.50;69.60
62424;DHT22;48463;43.604;3.872;2023-07-22T09:36:57;28.80;70.00
62424;DHT22;48463;43.604;3.872;2023-07-22T09:39:32;28.80;70.10
62424;DHT22;48463;43.604;3.872;2023-07-22T09:41:58;29.00;69.80
62424;DHT22;48463;43.604;3.872;2023-07-22T09:44:30;29.20;69.60
62424;DHT22;48463;43.604;3.872;2023-07-22T09:46:57;29.30;69.30
62424;DHT22;48463;43.604;3.872;2023-07-22T09:49:24;29.30;69.40
62424;DHT22;48463;43.604;3.872;2023-07-22T09:51:50;29.50;68.80
62424;DHT22;48463;43.604;3.872;2023-07-22T09:54:19;29.40;68.50
62424;DHT22;48463;43.604;3.872;2023-07-22T09:56:48;29.10;68.80
62424;DHT22;48463;43.604;3.872;2023-07-22T09:59:14;29.40;68.50
62424;DHT22;48463;43.604;3.872;2023-07-22T10:01:44;29.40;67.90
62424;DHT22;48463;43.604;3.872;2023-07-22T10:04:12;29.30;68.40
62424;DHT22;48463;43.604;3.872;2023-07-22T10:06:43;29.30;68.00
62424;DHT22;48463;43.604;3.872;2023-07-22T10:09:11;29.00;68.60
62424;DHT22;48463;43.604;3.872;2023-07-22T10:11:37;29.20;68.60
62424;DHT22;48463;43.604;3.872;2023-07-22T10:14:06;29.10;68.80
62424;DHT22;48463;43.604;3.872;2023-07-22T10:16:32;29.00;68.40
62424;DHT22;48463;43.604;3.872;2023-07-22T10:18:59;29.30;69.20
62424;DHT22;48463;43.604;3.872;2023-07-22T10:21:26;29.10;68.40
62424;DHT22;48463;43.604;3.872;2023-07-22T10:23:55;29.50;68.30
62424;DHT22;48463;43.604;3.872;2023-07-22T10:26:21;29.50;68.00
62424;DHT22;48463;43.604;3.872;2023-07-22T10:28:47;29.60;68.20
62424;DHT22;48463;43.604;3.872;2023-07-22T10:31:14;29.80;68.00
62424;DHT22;48463;43.604;3.872;2023-07-22T10:33:45;29.70;68.00
62424;DHT22;48463;43.604;3.872;2023-07-22T10:36:14;29.50;67.60
62424;DHT22;48463;43.604;3.872;2023-07-22T10:38:41;29.80;67.60
62424;DHT22;48463;43.604;3.872;2023-07-22T10:41:25;30.00;67.40
62424;DHT22;48463;43.604;3.872;2023-07-22T10:43:58;30.20;67.50
62424;DHT22;48463;43.604;3.872;2023-07-22T10:46:36;30.20;67.40
62424;DHT22;48463;43.604;3.872;2023-07-22T10:49:13;30.40;67.40
62424;DHT22;48463;43.604;3.872;2023-07-22T10:51:41;30.40;67.40
62424;DHT22;48463;43.604;3.872;2023-07-22T10:54:13;30.50;67.20
62424;DHT22;48463;43.604;3.872;2023-07-22T10:56:43;30.40;67.40
62424;DHT22;48463;43.604;3.872;2023-07-22T10:59:11;30.20;67.50
62424;DHT22;48463;43.604;3.872;2023-07-22T11:01:46;30.20;67.10
62424;DHT22;48463;43.604;3.872;2023-07-22T11:06:51;30.30;67.60
62424;DHT22;48463;43.604;3.872;2023-07-22T11:14:31;31.00;67.00
62424;DHT22;48463;43.604;3.872;2023-07-22T11:16:58;31.00;66.40
62424;DHT22;48463;43.604;3.872;2023-07-22T11:19:25;30.80;67.10
62424;DHT22;48463;43.604;3.872;2023-07-22T11:21:52;31.00;66.20
62424;DHT22;48463;43.604;3.872;2023-07-22T11:24:19;30.90;66.30
62424;DHT22;48463;43.604;3.872;2023-07-22T11:26:46;31.10;66.20
62424;DHT22;48463;43.604;3.872;2023-07-22T11:29:13;31.10;66.10
62424;DHT22;48463;43.604;3.872;2023-07-22T11:31:41;31.10;65.40
62424;DHT22;48463;43.604;3.872;2023-07-22T11:34:16;30.70;64.60
62424;DHT22;48463;43.604;3.872;2023-07-22T11:36:43;30.20;71.30
62424;DHT22;48463;43.604;3.872;2023-07-22T11:39:16;30.30;72.20
62424;DHT22;48463;43.604;3.872;2023-07-22T11:41:47;30.50;71.70
62424;DHT22;48463;43.604;3.872;2023-07-22T11:44:15;30.70;71.40
62424;DHT22;48463;43.604;3.872;2023-07-22T11:46:58;30.90;71.30
62424;DHT22;48463;43.604;3.872;2023-07-22T11:52:01;31.20;70.30
62424;DHT22;48463;43.604;3.872;2023-07-22T11:54:27;31.10;70.40
62424;DHT22;48463;43.604;3.872;2023-07-22T11:56:55;31.00;70.10
62424;DHT22;48463;43.604;3.872;2023-07-22T11:59:38;31.10;70.20
62424;DHT22;48463;43.604;3.872;2023-07-22T12:02:05;31.10;69.80
62424;DHT22;48463;43.604;3.872;2023-07-22T12:04:33;30.90;70.20
62424;DHT22;48463;43.604;3.872;2023-07-22T12:07:03;31.10;69.50
62424;DHT22;48463;43.604;3.872;2023-07-22T12:09:30;31.30;69.40
62424;DHT22;48463;43.604;3.872;2023-07-22T12:11:59;31.10;68.90
62424;DHT22;48463;43.604;3.872;2023-07-22T12:14:35;31.10;68.40
62424;DHT22;48463;43.604;3.872;2023-07-22T12:17:01;30.90;68.30
62424;DHT22;48463;43.604;3.872;2023-07-22T12:19:28;31.00;68.50
62424;DHT22;48463;43.604;3.872;2023-07-22T12:21:55;31.00;68.70
62424;DHT22;48463;43.604;3.872;2023-07-22T12:24:21;31.10;68.80
62424;DHT22;48463;43.604;3.872;2023-07-22T12:26:46;31.10;68.80
62424;DHT22;48463;43.604;3.872;2023-07-22T12:29:12;30.90;69.80
62424;DHT22;48463;43.604;3.872;2023-07-22T12:31:39;30.80;69.50
62424;DHT22;48463;43.604;3.872;2023-07-22T12:34:05;31.00;69.70
62424;DHT22;48463;43.604;3.872;2023-07-22T12:36:30;31.10;69.80
62424;DHT22;48463;43.604;3.872;2023-07-22T12:38:56;31.40;69.70
62424;DHT22;48463;43.604;3.872;2023-07-22T12:41:21;31.10;69.60
62424;DHT22;48463;43.604;3.872;2023-07-22T12:43:47;31.10;70.30
62424;DHT22;48463;43.604;3.872;2023-07-22T12:46:14;31.30;70.00
62424;DHT22;48463;43.604;3.872;2023-07-22T12:48:40;31.20;70.40
62424;DHT22;48463;43.604;3.872;2023-07-22T12:51:06;30.70;71.50
62424;DHT22;48463;43.604;3.872;2023-07-22T12:53:34;30.60;71.90
62424;DHT22;48463;43.604;3.872;2023-07-22T12:56:00;30.60;71.40
62424;DHT22;48463;43.604;3.872;2023-07-22T12:58:29;31.20;71.70
62424;DHT22;48463;43.604;3.872;2023-07-22T13:00:55;31.40;70.40
62424;DHT22;48463;43.604;3.872;2023-07-22T13:03:21;31.40;70.50
62424;DHT22;48463;43.604;3.872;2023-07-22T13:05:46;31.40;70.80
62424;DHT22;48463;43.604;3.872;2023-07-22T13:08:12;31.60;70.60
62424;DHT22;48463;43.604;3.872;2023-07-22T13:10:38;31.40;71.00
62424;DHT22;48463;43.604;3.872;2023-07-22T13:13:06;31.50;70.20
62424;DHT22;48463;43.604;3.872;2023-07-22T13:15:33;31.00;71.00
62424;DHT22;48463;43.604;3.872;2023-07-22T13:17:59;31.40;70.20
62424;DHT22;48463;43.604;3.872;2023-07-22T13:20:26;31.40;70.50
62424;DHT22;48463;43.604;3.872;2023-07-22T13:22:52;31.80;70.20
62424;DHT22;48463;43.604;3.872;2023-07-22T13:25:18;32.10;69.20
62424;DHT22;48463;43.604;3.872;2023-07-22T13:27:43;31.40;69.30
62424;DHT22;48463;43.604;3.872;2023-07-22T13:30:09;31.90;69.30
62424;DHT22;48463;43.604;3.872;2023-07-22T13:32:35;31.80;68.70
62424;DHT22;48463;43.604;3.872;2023-07-22T13:35:01;31.70;68.90
62424;DHT22;48463;43.604;3.872;2023-07-22T13:37:27;31.80;69.30
62424;DHT22;48463;43.604;3.872;2023-07-22T13:39:53;32.00;69.40
62424;DHT22;48463;43.604;3.872;2023-07-22T13:42:27;32.20;68.60
62424;DHT22;48463;43.604;3.872;2023-07-22T13:44:53;32.30;69.20
62424;DHT22;48463;43.604;3.872;2023-07-22T13:47:18;31.50;69.20
62424;DHT22;48463;43.604;3.872;2023-07-22T13:49:44;32.20;69.90
62424;DHT22;48463;43.604;3.872;2023-07-22T13:52:10;32.40;69.40
62424;DHT22;48463;43.604;3.872;2023-07-22T13:54:35;32.50;70.30
62424;DHT22;48463;43.604;3.872;2023-07-22T13:57:04;32.50;70.30
62424;DHT22;48463;43.604;3.872;2023-07-22T13:59:30;32.10;71.00
62424;DHT22;48463;43.604;3.872;2023-07-22T14:01:56;32.10;72.00
62424;DHT22;48463;43.604;3.872;2023-07-22T14:04:21;31.80;71.20
62424;DHT22;48463;43.604;3.872;2023-07-22T14:06:47;32.50;71.60
62424;DHT22;48463;43.604;3.872;2023-07-22T14:09:15;32.50;70.80
62424;DHT22;48463;43.604;3.872;2023-07-22T14:11:42;32.30;70.30
62424;DHT22;48463;43.604;3.872;2023-07-22T14:14:08;32.50;71.10
62424;DHT22;48463;43.604;3.872;2023-07-22T14:16:34;32.50;71.00
62424;DHT22;48463;43.604;3.872;2023-07-22T14:19:00;32.10;71.30
62424;DHT22;48463;43.604;3.872;2023-07-22T14:21:25;31.90;71.80
62424;DHT22;48463;43.604;3.872;2023-07-22T14:23:51;31.50;71.90
62424;DHT22;48463;43.604;3.872;2023-07-22T14:26:18;31.70;72.00
62424;DHT22;48463;43.604;3.872;2023-07-22T14:28:46;31.20;72.60
62424;DHT22;48463;43.604;3.872;2023-07-22T14:31:12;31.50;73.00
62424;DHT22;48463;43.604;3.872;2023-07-22T14:33:38;31.90;72.10
62424;DHT22;48463;43.604;3.872;2023-07-22T14:36:03;32.20;72.00
62424;DHT22;48463;43.604;3.872;2023-07-22T14:38:29;32.10;72.10
62424;DHT22;48463;43.604;3.872;2023-07-22T14:40:55;31.60;71.80
62424;DHT22;48463;43.604;3.872;2023-07-22T14:43:20;31.80;72.20
62424;DHT22;48463;43.604;3.872;2023-07-22T14:45:46;31.40;71.40
62424;DHT22;48463;43.604;3.872;2023-07-22T14:48:12;31.50;70.90
62424;DHT22;48463;43.604;3.872;2023-07-22T14:50:37;31.80;71.00
62424;DHT22;48463;43.604;3.872;2023-07-22T14:53:04;31.20;72.40
62424;DHT22;48463;43.604;3.872;2023-07-22T14:55:30;31.20;72.20
62424;DHT22;48463;43.604;3.872;2023-07-22T14:57:56;31.50;72.90
62424;DHT22;48463;43.604;3.872;2023-07-22T15:00:22;32.20;72.40
62424;DHT22;48463;43.604;3.872;2023-07-22T15:02:49;33.40;70.60
62424;DHT22;48463;43.604;3.872;2023-07-22T15:05:14;34.40;69.20
62424;DHT22;48463;43.604;3.872;2023-07-22T15:07:40;35.70;68.70
62424;DHT22;48463;43.604;3.872;2023-07-22T15:10:07;36.00;68.10
62424;DHT22;48463;43.604;3.872;2023-07-22T15:12:33;35.20;68.30
62424;DHT22;48463;43.604;3.872;2023-07-22T15:14:59;33.70;69.80
62424;DHT22;48463;43.604;3.872;2023-07-22T15:17:26;34.20;70.70
62424;DHT22;48463;43.604;3.872;2023-07-22T15:19:56;34.20;69.20
62424;DHT22;48463;43.604;3.872;2023-07-22T15:22:23;33.80;68.80
62424;DHT22;48463;43.604;3.872;2023-07-22T15:24:49;32.50;69.30
62424;DHT22;48463;43.604;3.872;2023-07-22T15:27:14;32.00;70.50
62424;DHT22;48463;43.604;3.872;2023-07-22T15:29:40;31.60;71.60
62424;DHT22;48463;43.604;3.872;2023-07-22T15:32:06;31.80;71.70
62424;DHT22;48463;43.604;3.872;2023-07-22T15:34:32;31.70;71.70
62424;DHT22;48463;43.604;3.872;2023-07-22T15:36:58;31.30;72.90